X  Schließen METAR Luftfahrt Wetterdaten     EHRD Rotterdam The Hague Airport
Temperatur
7°C Temperatur
4°C Taupunkt
81% Feuchtigkeit



Wind
40 KM/S
25 MPS
11 M/S
22 KTS



210°
SSW
Aktuelle Wetterlage

Teilweise bewölkt Teilweise bewölkt
Luftdruck 988.92 (hPa) - 29.2 (inHg)
Sichtweite 6.2 (Meile) - 10 (Km)
Flughafen
Flughafen Code EHRD

Position : Rotterdam The Hague Airport
Entfernung: 16 (Km)

Metar:
EHRD 211125Z AUTO 21022KT 160V230 9999 FEW019 SCT023 07/04 Q0989 NOSIG

Zeit: 21-01-2021 12:25 CET